sensor_id;sensor_type;location;lat;lon;timestamp;pressure;altitude;pressure_sealevel;temperature;humidity
25664;BME280;13522;50.018;20.014;2023-08-01T00:00:25;98132.34;;;17.45;100.00
25664;BME280;13522;50.018;20.014;2023-08-01T00:03:39;98132.76;;;17.42;100.00
25664;BME280;13522;50.018;20.014;2023-08-01T00:06:52;98120.98;;;17.43;100.00
25664;BME280;13522;50.018;20.014;2023-08-01T00:10:06;98121.19;;;17.42;100.00
25664;BME280;13522;50.018;20.014;2023-08-01T00:13:19;98123.42;;;17.31;100.00
25664;BME280;13522;50.018;20.014;2023-08-01T00:16:31;98119.06;;;17.24;100.00
25664;BME280;13522;50.018;20.014;2023-08-01T00:19:45;98113.49;;;17.25;100.00
25664;BME280;13522;50.018;20.014;2023-08-01T00:22:57;98113.25;;;17.14;100.00
25664;BME280;13522;50.018;20.014;2023-08-01T00:26:10;98107.50;;;17.17;100.00
25664;BME280;13522;50.018;20.014;2023-08-01T00:29:22;98106.45;;;17.18;100.00
25664;BME280;13522;50.018;20.014;2023-08-01T00:32:36;98103.38;;;17.21;100.00
25664;BME280;13522;50.018;20.014;2023-08-01T00:35:54;98092.62;;;17.14;100.00
25664;BME280;13522;50.018;20.014;2023-08-01T00:39:07;98083.70;;;17.01;100.00
25664;BME280;13522;50.018;20.014;2023-08-01T00:42:19;98078.71;;;16.98;100.00
25664;BME280;13522;50.018;20.014;2023-08-01T00:45:32;98082.83;;;16.94;100.00
25664;BME280;13522;50.018;20.014;2023-08-01T00:48:45;98071.88;;;16.89;100.00
25664;BME280;13522;50.018;20.014;2023-08-01T00:51:58;98066.48;;;16.82;100.00
25664;BME280;13522;50.018;20.014;2023-08-01T00:55:11;98066.44;;;16.76;100.00
25664;BME280;13522;50.018;20.014;2023-08-01T00:58:24;98065.59;;;16.69;100.00
25664;BME280;13522;50.018;20.014;2023-08-01T01:01:37;98061.23;;;16.61;100.00
25664;BME280;13522;50.018;20.014;2023-08-01T01:04:50;98059.55;;;16.54;100.00
25664;BME280;13522;50.018;20.014;2023-08-01T01:08:04;98051.88;;;16.51;100.00
25664;BME280;13522;50.018;20.014;2023-08-01T01:11:16;98049.95;;;16.44;100.00
25664;BME280;13522;50.018;20.014;2023-08-01T01:14:29;98037.59;;;16.43;100.00
25664;BME280;13522;50.018;20.014;2023-08-01T01:17:41;98033.75;;;16.53;100.00
25664;BME280;13522;50.018;20.014;2023-08-01T01:20:54;98034.42;;;16.61;100.00
25664;BME280;13522;50.018;20.014;2023-08-01T01:24:07;98030.06;;;16.60;100.00
25664;BME280;13522;50.018;20.014;2023-08-01T01:27:22;98017.70;;;16.59;100.00
25664;BME280;13522;50.018;20.014;2023-08-01T01:30:35;98017.30;;;16.62;100.00
25664;BME280;13522;50.018;20.014;2023-08-01T01:33:47;98002.45;;;16.60;100.00
25664;BME280;13522;50.018;20.014;2023-08-01T01:37:00;98004.27;;;16.53;100.00
25664;BME280;13522;50.018;20.014;2023-08-01T01:40:13;97992.20;;;16.35;100.00
25664;BME280;13522;50.018;20.014;2023-08-01T01:43:25;97984.54;;;16.32;100.00
25664;BME280;13522;50.018;20.014;2023-08-01T01:46:38;97993.62;;;16.31;100.00
25664;BME280;13522;50.018;20.014;2023-08-01T01:49:50;97978.08;;;16.20;100.00
25664;BME280;13522;50.018;20.014;2023-08-01T01:53:03;97973.77;;;16.19;100.00
25664;BME280;13522;50.018;20.014;2023-08-01T01:56:15;97968.45;;;16.26;100.00
25664;BME280;13522;50.018;20.014;2023-08-01T01:59:28;97970.88;;;16.21;100.00
25664;BME280;13522;50.018;20.014;2023-08-01T02:02:40;97968.98;;;16.08;100.00
25664;BME280;13522;50.018;20.014;2023-08-01T02:05:53;97964.22;;;16.10;100.00
25664;BME280;13522;50.018;20.014;2023-08-01T02:09:05;97960.94;;;16.08;100.00
25664;BME280;13522;50.018;20.014;2023-08-01T02:12:18;97960.05;;;16.01;100.00
25664;BME280;13522;50.018;20.014;2023-08-01T02:15:30;97957.63;;;16.06;100.00
25664;BME280;13522;50.018;20.014;2023-08-01T02:18:43;97949.97;;;16.03;100.00
25664;BME280;13522;50.018;20.014;2023-08-01T02:21:56;97902.24;;;15.79;100.00
25664;BME280;13522;50.018;20.014;2023-08-01T02:25:09;97944.82;;;16.02;100.00
25664;BME280;13522;50.018;20.014;2023-08-01T02:28:21;97931.59;;;15.94;100.00
25664;BME280;13522;50.018;20.014;2023-08-01T02:31:33;97929.06;;;15.86;100.00
25664;BME280;13522;50.018;20.014;2023-08-01T02:34:47;97931.34;;;15.89;100.00
25664;BME280;13522;50.018;20.014;2023-08-01T02:38:00;97922.50;;;15.88;100.00
25664;BME280;13522;50.018;20.014;2023-08-01T02:41:13;97934.42;;;15.86;100.00
25664;BME280;13522;50.018;20.014;2023-08-01T02:44:25;97930.63;;;15.74;100.00
25664;BME280;13522;50.018;20.014;2023-08-01T02:47:38;97928.36;;;15.71;100.00
25664;BME280;13522;50.018;20.014;2023-08-01T02:50:50;97932.45;;;15.67;100.00
25664;BME280;13522;50.018;20.014;2023-08-01T02:54:02;97922.95;;;15.64;100.00
25664;BME280;13522;50.018;20.014;2023-08-01T02:57:15;97926.84;;;15.61;100.00
25664;BME280;13522;50.018;20.014;2023-08-01T03:00:27;97930.50;;;15.54;100.00
25664;BME280;13522;50.018;20.014;2023-08-01T03:03:39;97922.21;;;15.49;100.00
25664;BME280;13522;50.018;20.014;2023-08-01T03:06:53;97921.72;;;15.39;100.00
25664;BME280;13522;50.018;20.014;2023-08-01T03:10:07;97927.70;;;15.41;100.00
25664;BME280;13522;50.018;20.014;2023-08-01T03:13:22;97915.73;;;15.37;100.00
25664;BME280;13522;50.018;20.014;2023-08-01T03:16:35;97907.65;;;15.30;100.00
25664;BME280;13522;50.018;20.014;2023-08-01T03:19:48;97901.09;;;15.33;100.00
25664;BME280;13522;50.018;20.014;2023-08-01T03:23:00;97902.09;;;15.32;100.00
25664;BME280;13522;50.018;20.014;2023-08-01T03:26:13;97902.36;;;15.37;100.00
25664;BME280;13522;50.018;20.014;2023-08-01T03:29:26;97902.25;;;15.45;100.00
25664;BME280;13522;50.018;20.014;2023-08-01T03:32:39;97906.97;;;15.43;100.00
25664;BME280;13522;50.018;20.014;2023-08-01T03:35:53;97896.38;;;15.35;100.00
25664;BME280;13522;50.018;20.014;2023-08-01T03:39:05;97896.38;;;15.35;100.00
25664;BME280;13522;50.018;20.014;2023-08-01T03:42:18;97893.73;;;15.41;100.00
25664;BME280;13522;50.018;20.014;2023-08-01T03:45:31;97889.30;;;15.48;100.00
25664;BME280;13522;50.018;20.014;2023-08-01T03:48:43;97881.77;;;15.65;100.00
25664;BME280;13522;50.018;20.014;2023-08-01T03:51:56;97881.61;;;15.73;100.00
25664;BME280;13522;50.018;20.014;2023-08-01T03:55:09;97875.14;;;15.95;100.00
25664;BME280;13522;50.018;20.014;2023-08-01T03:58:22;97871.29;;;16.04;100.00
25664;BME280;13522;50.018;20.014;2023-08-01T04:01:34;97876.90;;;16.16;100.00
25664;BME280;13522;50.018;20.014;2023-08-01T04:04:47;97871.37;;;16.30;100.00
25664;BME280;13522;50.018;20.014;2023-08-01T04:08:01;97875.30;;;16.34;100.00
25664;BME280;13522;50.018;20.014;2023-08-01T04:11:13;97870.80;;;16.41;100.00
25664;BME280;13522;50.018;20.014;2023-08-01T04:14:26;97876.16;;;16.48;100.00
25664;BME280;13522;50.018;20.014;2023-08-01T04:17:38;97880.15;;;16.59;100.00
25664;BME280;13522;50.018;20.014;2023-08-01T04:20:50;97866.35;;;16.62;100.00
25664;BME280;13522;50.018;20.014;2023-08-01T04:24:05;97866.78;;;16.72;100.00
25664;BME280;13522;50.018;20.014;2023-08-01T04:27:17;97866.38;;;16.81;100.00
25664;BME280;13522;50.018;20.014;2023-08-01T04:30:29;97861.82;;;16.82;100.00
25664;BME280;13522;50.018;20.014;2023-08-01T04:33:44;97856.88;;;16.92;100.00
25664;BME280;13522;50.018;20.014;2023-08-01T04:36:57;97856.06;;;16.98;100.00
25664;BME280;13522;50.018;20.014;2023-08-01T04:40:11;97848.02;;;16.98;100.00
25664;BME280;13522;50.018;20.014;2023-08-01T04:43:24;97855.87;;;17.12;100.00
25664;BME280;13522;50.018;20.014;2023-08-01T04:46:36;97848.63;;;17.19;100.00
25664;BME280;13522;50.018;20.014;2023-08-01T04:49:49;97830.89;;;17.25;100.00
25664;BME280;13522;50.018;20.014;2023-08-01T04:53:02;97825.30;;;17.53;100.00
25664;BME280;13522;50.018;20.014;2023-08-01T04:56:14;97817.98;;;17.79;100.00
25664;BME280;13522;50.018;20.014;2023-08-01T04:59:27;97819.98;;;17.97;100.00
25664;BME280;13522;50.018;20.014;2023-08-01T05:02:39;97822.75;;;18.28;96.11
25664;BME280;13522;50.018;20.014;2023-08-01T05:05:52;97824.27;;;18.55;92.79
25664;BME280;13522;50.018;20.014;2023-08-01T05:09:04;97813.19;;;18.70;90.86
25664;BME280;13522;50.018;20.014;2023-08-01T05:12:17;97812.50;;;18.81;89.72
25664;BME280;13522;50.018;20.014;2023-08-01T05:15:29;97807.33;;;19.04;87.80
25664;BME280;13522;50.018;20.014;2023-08-01T05:18:41;97803.18;;;19.33;87.13
25664;BME280;13522;50.018;20.014;2023-08-01T05:21:54;97801.11;;;19.53;85.85
25664;BME280;13522;50.018;20.014;2023-08-01T05:25:07;97790.18;;;19.66;84.89
25664;BME280;13522;50.018;20.014;2023-08-01T05:28:20;97787.63;;;19.71;82.86
25664;BME280;13522;50.018;20.014;2023-08-01T05:31:32;97782.63;;;19.74;83.26
25664;BME280;13522;50.018;20.014;2023-08-01T05:34:47;97762.28;;;19.60;82.85
25664;BME280;13522;50.018;20.014;2023-08-01T05:37:59;97791.02;;;19.84;82.08
25664;BME280;13522;50.018;20.014;2023-08-01T05:41:11;97799.21;;;20.08;81.43
25664;BME280;13522;50.018;20.014;2023-08-01T05:44:24;97798.46;;;20.19;80.82
25664;BME280;13522;50.018;20.014;2023-08-01T05:47:36;97791.76;;;20.39;80.10
25664;BME280;13522;50.018;20.014;2023-08-01T05:50:49;97791.20;;;20.49;80.30
25664;BME280;13522;50.018;20.014;2023-08-01T05:54:01;97793.69;;;20.62;78.29
25664;BME280;13522;50.018;20.014;2023-08-01T05:57:14;97783.30;;;20.77;77.56
25664;BME280;13522;50.018;20.014;2023-08-01T06:00:26;97781.89;;;20.86;78.22
25664;BME280;13522;50.018;20.014;2023-08-01T06:03:39;97783.91;;;20.91;77.48
25664;BME280;13522;50.018;20.014;2023-08-01T06:06:51;97773.59;;;20.99;78.06
25664;BME280;13522;50.018;20.014;2023-08-01T06:10:04;97775.98;;;21.07;76.58
25664;BME280;13522;50.018;20.014;2023-08-01T06:13:18;97778.55;;;21.14;76.19
25664;BME280;13522;50.018;20.014;2023-08-01T06:16:30;97778.09;;;21.17;76.80
25664;BME280;13522;50.018;20.014;2023-08-01T06:19:43;97784.33;;;21.17;76.45
25664;BME280;13522;50.018;20.014;2023-08-01T06:22:56;97777.61;;;21.31;77.25
25664;BME280;13522;50.018;20.014;2023-08-01T06:26:09;97785.23;;;21.57;76.39
25664;BME280;13522;50.018;20.014;2023-08-01T06:29:21;97775.80;;;21.72;75.09
25664;BME280;13522;50.018;20.014;2023-08-01T06:32:34;97773.56;;;21.92;75.23
25664;BME280;13522;50.018;20.014;2023-08-01T06:35:47;97772.98;;;21.90;75.15
25664;BME280;13522;50.018;20.014;2023-08-01T06:38:59;97774.86;;;21.78;76.07
25664;BME280;13522;50.018;20.014;2023-08-01T06:42:12;97776.30;;;21.69;76.39
25664;BME280;13522;50.018;20.014;2023-08-01T06:45:24;97778.20;;;21.56;76.71
25664;BME280;13522;50.018;20.014;2023-08-01T06:48:36;97780.33;;;21.43;75.86
25664;BME280;13522;50.018;20.014;2023-08-01T06:51:49;97777.73;;;21.36;75.81
25664;BME280;13522;50.018;20.014;2023-08-01T06:55:01;97769.50;;;21.31;77.41
25664;BME280;13522;50.018;20.014;2023-08-01T06:58:14;97758.94;;;21.30;77.56
25664;BME280;13522;50.018;20.014;2023-08-01T07:01:27;97754.61;;;21.29;78.25
25664;BME280;13522;50.018;20.014;2023-08-01T07:04:41;97758.02;;;21.24;77.99
25664;BME280;13522;50.018;20.014;2023-08-01T07:07:53;97758.50;;;21.21;78.18
25664;BME280;13522;50.018;20.014;2023-08-01T07:11:06;97763.89;;;21.33;78.55
25664;BME280;13522;50.018;20.014;2023-08-01T07:14:19;97756.23;;;21.30;79.51
25664;BME280;13522;50.018;20.014;2023-08-01T07:17:31;97756.73;;;21.27;79.14
25664;BME280;13522;50.018;20.014;2023-08-01T07:20:44;97760.13;;;21.22;78.92
25664;BME280;13522;50.018;20.014;2023-08-01T07:23:56;97761.41;;;21.20;79.80
25664;BME280;13522;50.018;20.014;2023-08-01T07:27:09;97756.49;;;21.17;80.65
25664;BME280;13522;50.018;20.014;2023-08-01T07:30:22;97756.00;;;21.20;80.62
25664;BME280;13522;50.018;20.014;2023-08-01T07:33:36;97756.25;;;21.18;81.04
25664;BME280;13522;50.018;20.014;2023-08-01T07:36:50;97763.90;;;21.21;81.25
25664;BME280;13522;50.018;20.014;2023-08-01T07:40:02;97752.85;;;21.23;82.16
25664;BME280;13522;50.018;20.014;2023-08-01T07:43:15;97747.31;;;21.29;82.59
25664;BME280;13522;50.018;20.014;2023-08-01T07:46:27;97744.16;;;21.32;83.22
25664;BME280;13522;50.018;20.014;2023-08-01T07:49:40;97741.55;;;21.37;83.96
25664;BME280;13522;50.018;20.014;2023-08-01T07:52:52;97739.92;;;21.36;83.77
25664;BME280;13522;50.018;20.014;2023-08-01T07:56:05;97742.13;;;21.39;83.58
25664;BME280;13522;50.018;20.014;2023-08-01T07:59:17;97729.80;;;21.43;83.75
25664;BME280;13522;50.018;20.014;2023-08-01T08:02:30;97727.56;;;21.52;83.42
25664;BME280;13522;50.018;20.014;2023-08-01T08:05:42;97724.83;;;21.64;82.99
25664;BME280;13522;50.018;20.014;2023-08-01T08:08:55;97709.64;;;21.74;83.49
25664;BME280;13522;50.018;20.014;2023-08-01T08:12:08;97720.13;;;21.71;82.85
25664;BME280;13522;50.018;20.014;2023-08-01T08:15:21;97715.88;;;21.75;84.02
25664;BME280;13522;50.018;20.014;2023-08-01T08:18:36;97721.28;;;21.75;83.17
25664;BME280;13522;50.018;20.014;2023-08-01T08:21:48;97717.27;;;21.77;83.75
25664;BME280;13522;50.018;20.014;2023-08-01T08:25:01;97714.46;;;21.84;84.13
25664;BME280;13522;50.018;20.014;2023-08-01T08:28:14;97715.13;;;21.91;83.53
25664;BME280;13522;50.018;20.014;2023-08-01T08:31:29;97709.45;;;22.04;83.80
25664;BME280;13522;50.018;20.014;2023-08-01T08:34:41;97709.64;;;22.14;83.17
25664;BME280;13522;50.018;20.014;2023-08-01T08:37:54;97713.91;;;22.26;83.09
25664;BME280;13522;50.018;20.014;2023-08-01T08:41:11;97710.52;;;22.48;84.01
25664;BME280;13522;50.018;20.014;2023-08-01T08:44:25;97711.81;;;22.45;83.05
25664;BME280;13522;50.018;20.014;2023-08-01T08:47:43;97709.19;;;22.33;83.78
25664;BME280;13522;50.018;20.014;2023-08-01T08:50:59;97707.02;;;22.19;83.37
25664;BME280;13522;50.018;20.014;2023-08-01T08:54:13;97710.22;;;22.16;83.84
25664;BME280;13522;50.018;20.014;2023-08-01T08:57:26;97707.80;;;22.03;85.22
25664;BME280;13522;50.018;20.014;2023-08-01T09:00:39;97702.05;;;21.99;85.39
25664;BME280;13522;50.018;20.014;2023-08-01T09:03:52;97698.77;;;21.97;85.84
25664;BME280;13522;50.018;20.014;2023-08-01T09:07:09;97701.72;;;21.96;85.29
25664;BME280;13522;50.018;20.014;2023-08-01T09:10:22;97693.86;;;21.94;85.84
25664;BME280;13522;50.018;20.014;2023-08-01T09:13:34;97683.84;;;21.95;85.96
25664;BME280;13522;50.018;20.014;2023-08-01T09:16:47;97682.14;;;21.89;86.26
25664;BME280;13522;50.018;20.014;2023-08-01T09:20:07;97678.69;;;21.93;87.03
25664;BME280;13522;50.018;20.014;2023-08-01T09:23:20;97679.52;;;21.94;86.27
25664;BME280;13522;50.018;20.014;2023-08-01T09:26:37;97678.44;;;21.95;86.81
25664;BME280;13522;50.018;20.014;2023-08-01T09:29:50;97669.74;;;21.93;87.18
25664;BME280;13522;50.018;20.014;2023-08-01T09:33:02;97664.12;;;21.94;86.70
25664;BME280;13522;50.018;20.014;2023-08-01T09:36:21;97665.85;;;22.00;86.54
25664;BME280;13522;50.018;20.014;2023-08-01T09:39:35;97665.35;;;22.03;86.79
25664;BME280;13522;50.018;20.014;2023-08-01T09:42:48;97669.13;;;22.02;86.72
25664;BME280;13522;50.018;20.014;2023-08-01T09:46:00;97662.07;;;22.01;86.01
25664;BME280;13522;50.018;20.014;2023-08-01T09:49:13;97651.83;;;22.03;86.69
25664;BME280;13522;50.018;20.014;2023-08-01T09:52:30;97654.72;;;22.13;86.88
25664;BME280;13522;50.018;20.014;2023-08-01T09:55:45;97649.89;;;22.15;86.26
25664;BME280;13522;50.018;20.014;2023-08-01T09:58:59;97647.83;;;22.22;86.46
25664;BME280;13522;50.018;20.014;2023-08-01T10:02:15;97653.24;;;22.22;87.15
25664;BME280;13522;50.018;20.014;2023-08-01T10:05:29;97655.47;;;22.25;87.15
25664;BME280;13522;50.018;20.014;2023-08-01T10:08:42;97647.51;;;22.19;87.39
25664;BME280;13522;50.018;20.014;2023-08-01T10:11:56;97654.39;;;22.10;88.18
25664;BME280;13522;50.018;20.014;2023-08-01T10:15:10;97662.90;;;22.02;88.98
25664;BME280;13522;50.018;20.014;2023-08-01T10:18:23;97660.09;;;21.97;90.07
25664;BME280;13522;50.018;20.014;2023-08-01T10:21:36;97662.71;;;21.92;91.72
25664;BME280;13522;50.018;20.014;2023-08-01T10:24:50;97657.58;;;21.79;93.28
25664;BME280;13522;50.018;20.014;2023-08-01T10:28:05;97662.78;;;21.69;95.82
25664;BME280;13522;50.018;20.014;2023-08-01T10:31:19;97661.50;;;21.59;98.47
25664;BME280;13522;50.018;20.014;2023-08-01T10:34:33;97659.77;;;21.53;98.95
25664;BME280;13522;50.018;20.014;2023-08-01T10:37:46;97656.48;;;21.51;100.00
25664;BME280;13522;50.018;20.014;2023-08-01T10:40:58;97655.69;;;21.39;100.00
25664;BME280;13522;50.018;20.014;2023-08-01T10:44:12;97656.77;;;21.38;100.00
25664;BME280;13522;50.018;20.014;2023-08-01T10:47:29;97659.34;;;21.33;100.00
25664;BME280;13522;50.018;20.014;2023-08-01T10:50:40;97669.96;;;21.23;100.00
25664;BME280;13522;50.018;20.014;2023-08-01T10:53:54;97675.14;;;21.13;100.00
25664;BME280;13522;50.018;20.014;2023-08-01T10:57:07;97678.87;;;21.01;100.00
25664;BME280;13522;50.018;20.014;2023-08-01T11:00:20;97685.90;;;20.90;100.00
25664;BME280;13522;50.018;20.014;2023-08-01T11:03:38;97669.36;;;20.87;100.00
25664;BME280;13522;50.018;20.014;2023-08-01T11:06:52;97670.78;;;20.78;100.00
25664;BME280;13522;50.018;20.014;2023-08-01T11:10:09;97673.00;;;20.69;100.00
25664;BME280;13522;50.018;20.014;2023-08-01T11:13:21;97676.05;;;20.61;100.00
25664;BME280;13522;50.018;20.014;2023-08-01T11:16:34;97676.63;;;20.51;100.00
25664;BME280;13522;50.018;20.014;2023-08-01T11:19:48;97688.44;;;20.39;100.00
25664;BME280;13522;50.018;20.014;2023-08-01T11:23:01;97689.84;;;20.30;100.00
25664;BME280;13522;50.018;20.014;2023-08-01T11:26:14;97681.91;;;20.17;100.00
25664;BME280;13522;50.018;20.014;2023-08-01T11:29:27;97679.09;;;20.12;100.00
25664;BME280;13522;50.018;20.014;2023-08-01T11:32:40;97680.59;;;20.08;100.00
25664;BME280;13522;50.018;20.014;2023-08-01T11:35:54;97670.05;;;20.06;100.00
25664;BME280;13522;50.018;20.014;2023-08-01T11:39:07;97677.40;;;19.99;100.00
25664;BME280;13522;50.018;20.014;2023-08-01T11:42:20;97673.63;;;19.88;100.00
25664;BME280;13522;50.018;20.014;2023-08-01T11:45:32;97669.63;;;19.91;100.00
25664;BME280;13522;50.018;20.014;2023-08-01T11:48:47;97669.27;;;19.87;100.00
25664;BME280;13522;50.018;20.014;2023-08-01T11:52:00;97681.44;;;19.78;100.00
25664;BME280;13522;50.018;20.014;2023-08-01T11:55:22;97667.22;;;19.71;100.00
25664;BME280;13522;50.018;20.014;2023-08-01T11:58:36;97682.78;;;19.69;100.00
25664;BME280;13522;50.018;20.014;2023-08-01T12:01:51;97675.02;;;19.61;100.00
25664;BME280;13522;50.018;20.014;2023-08-01T12:05:04;97686.09;;;19.53;100.00
25664;BME280;13522;50.018;20.014;2023-08-01T12:08:19;97692.98;;;19.49;100.00
25664;BME280;13522;50.018;20.014;2023-08-01T12:11:31;97691.19;;;19.43;100.00
25664;BME280;13522;50.018;20.014;2023-08-01T12:14:44;97697.70;;;19.36;100.00
25664;BME280;13522;50.018;20.014;2023-08-01T12:17:58;97699.41;;;19.30;100.00
25664;BME280;13522;50.018;20.014;2023-08-01T12:21:10;97701.86;;;19.32;100.00
25664;BME280;13522;50.018;20.014;2023-08-01T12:24:23;97694.31;;;19.22;100.00
25664;BME280;13522;50.018;20.014;2023-08-01T12:27:35;97687.36;;;19.15;100.00
25664;BME280;13522;50.018;20.014;2023-08-01T12:30:48;97693.17;;;19.12;100.00
25664;BME280;13522;50.018;20.014;2023-08-01T12:34:00;97695.50;;;19.08;100.00
25664;BME280;13522;50.018;20.014;2023-08-01T12:37:12;97696.02;;;18.98;100.00
25664;BME280;13522;50.018;20.014;2023-08-01T12:40:24;97697.28;;;18.96;100.00
25664;BME280;13522;50.018;20.014;2023-08-01T12:43:36;97700.25;;;18.88;100.00
25664;BME280;13522;50.018;20.014;2023-08-01T12:46:49;97695.56;;;18.83;100.00
25664;BME280;13522;50.018;20.014;2023-08-01T12:50:02;97690.38;;;18.82;100.00
25664;BME280;13522;50.018;20.014;2023-08-01T12:53:15;97697.84;;;18.80;100.00
25664;BME280;13522;50.018;20.014;2023-08-01T12:56:29;97703.22;;;18.80;100.00
25664;BME280;13522;50.018;20.014;2023-08-01T12:59:41;97706.80;;;18.74;100.00
25664;BME280;13522;50.018;20.014;2023-08-01T13:02:54;97691.26;;;18.76;100.00
25664;BME280;13522;50.018;20.014;2023-08-01T13:06:09;97688.80;;;18.74;100.00
25664;BME280;13522;50.018;20.014;2023-08-01T13:09:23;97684.30;;;18.68;100.00
25664;BME280;13522;50.018;20.014;2023-08-01T13:12:36;97687.67;;;18.64;100.00
25664;BME280;13522;50.018;20.014;2023-08-01T13:15:50;97688.93;;;18.61;100.00
25664;BME280;13522;50.018;20.014;2023-08-01T13:19:02;97693.48;;;18.61;100.00
25664;BME280;13522;50.018;20.014;2023-08-01T13:22:15;97701.39;;;18.56;100.00
25664;BME280;13522;50.018;20.014;2023-08-01T13:25:27;97686.74;;;18.52;100.00
25664;BME280;13522;50.018;20.014;2023-08-01T13:28:40;97694.20;;;18.50;100.00
25664;BME280;13522;50.018;20.014;2023-08-01T13:31:53;97676.26;;;18.44;100.00
25664;BME280;13522;50.018;20.014;2023-08-01T13:35:06;97678.31;;;18.42;100.00
25664;BME280;13522;50.018;20.014;2023-08-01T13:38:19;97687.06;;;18.31;100.00
25664;BME280;13522;50.018;20.014;2023-08-01T13:41:31;97682.30;;;18.33;100.00
25664;BME280;13522;50.018;20.014;2023-08-01T13:44:44;97673.20;;;18.34;100.00
25664;BME280;13522;50.018;20.014;2023-08-01T13:47:57;97683.50;;;18.37;100.00
25664;BME280;13522;50.018;20.014;2023-08-01T13:51:09;97688.27;;;18.35;100.00
25664;BME280;13522;50.018;20.014;2023-08-01T13:54:23;97679.98;;;18.36;100.00
25664;BME280;13522;50.018;20.014;2023-08-01T13:57:35;97680.66;;;18.32;100.00
25664;BME280;13522;50.018;20.014;2023-08-01T14:00:48;97679.72;;;18.19;100.00
25664;BME280;13522;50.018;20.014;2023-08-01T14:04:01;97674.98;;;18.15;100.00
25664;BME280;13522;50.018;20.014;2023-08-01T14:07:14;97672.30;;;18.15;100.00
25664;BME280;13522;50.018;20.014;2023-08-01T14:10:27;97663.25;;;18.09;100.00
25664;BME280;13522;50.018;20.014;2023-08-01T14:13:40;97645.27;;;18.10;100.00
25664;BME280;13522;50.018;20.014;2023-08-01T14:16:52;97662.64;;;18.07;100.00
25664;BME280;13522;50.018;20.014;2023-08-01T14:20:07;97671.13;;;18.04;100.00
25664;BME280;13522;50.018;20.014;2023-08-01T14:23:22;97662.91;;;17.99;100.00
25664;BME280;13522;50.018;20.014;2023-08-01T14:26:35;97654.23;;;17.97;100.00
25664;BME280;13522;50.018;20.014;2023-08-01T14:29:48;97646.78;;;17.99;100.00
25664;BME280;13522;50.018;20.014;2023-08-01T14:33:03;97643.45;;;18.04;100.00
25664;BME280;13522;50.018;20.014;2023-08-01T14:36:18;97642.63;;;18.03;100.00
25664;BME280;13522;50.018;20.014;2023-08-01T14:39:30;97652.50;;;18.09;100.00
25664;BME280;13522;50.018;20.014;2023-08-01T14:42:42;97638.46;;;18.07;100.00
25664;BME280;13522;50.018;20.014;2023-08-01T14:45:55;97636.00;;;18.06;100.00
25664;BME280;13522;50.018;20.014;2023-08-01T14:49:08;97626.50;;;18.03;100.00
25664;BME280;13522;50.018;20.014;2023-08-01T14:52:20;97627.94;;;18.06;100.00
25664;BME280;13522;50.018;20.014;2023-08-01T14:55:35;97619.88;;;18.06;100.00
25664;BME280;13522;50.018;20.014;2023-08-01T14:58:48;97618.82;;;18.07;100.00
25664;BME280;13522;50.018;20.014;2023-08-01T15:02:00;97619.69;;;18.01;100.00
25664;BME280;13522;50.018;20.014;2023-08-01T15:05:15;97618.89;;;18.00;100.00
25664;BME280;13522;50.018;20.014;2023-08-01T15:08:28;97623.21;;;18.01;100.00
25664;BME280;13522;50.018;20.014;2023-08-01T15:11:40;97618.44;;;18.03;100.00
25664;BME280;13522;50.018;20.014;2023-08-01T15:14:53;97627.11;;;18.05;100.00
25664;BME280;13522;50.018;20.014;2023-08-01T15:18:05;97633.95;;;18.01;100.00
25664;BME280;13522;50.018;20.014;2023-08-01T15:21:19;97648.00;;;18.03;100.00
25664;BME280;13522;50.018;20.014;2023-08-01T15:24:33;97650.53;;;17.98;100.00
25664;BME280;13522;50.018;20.014;2023-08-01T15:27:45;97655.90;;;17.98;100.00
25664;BME280;13522;50.018;20.014;2023-08-01T15:31:05;97641.41;;;17.99;100.00
25664;BME280;13522;50.018;20.014;2023-08-01T15:34:20;97637.70;;;18.00;100.00
25664;BME280;13522;50.018;20.014;2023-08-01T15:37:32;97629.64;;;18.00;100.00
25664;BME280;13522;50.018;20.014;2023-08-01T15:40:45;97619.92;;;17.99;100.00
25664;BME280;13522;50.018;20.014;2023-08-01T15:43:59;97621.58;;;18.00;100.00
25664;BME280;13522;50.018;20.014;2023-08-01T15:47:12;97616.20;;;18.00;100.00
25664;BME280;13522;50.018;20.014;2023-08-01T15:50:24;97620.75;;;18.00;100.00
25664;BME280;13522;50.018;20.014;2023-08-01T15:53:37;97614.99;;;17.96;100.00
25664;BME280;13522;50.018;20.014;2023-08-01T15:56:49;97608.79;;;17.96;100.00
25664;BME280;13522;50.018;20.014;2023-08-01T16:00:03;97601.15;;;17.93;100.00
25664;BME280;13522;50.018;20.014;2023-08-01T16:03:18;97595.40;;;17.89;100.00
25664;BME280;13522;50.018;20.014;2023-08-01T16:06:30;97589.42;;;17.87;100.00
25664;BME280;13522;50.018;20.014;2023-08-01T16:09:43;97590.89;;;17.83;100.00
25664;BME280;13522;50.018;20.014;2023-08-01T16:12:55;97584.50;;;17.84;100.00
25664;BME280;13522;50.018;20.014;2023-08-01T16:16:07;97583.28;;;17.80;100.00
25664;BME280;13522;50.018;20.014;2023-08-01T16:19:20;97581.63;;;17.79;100.00
25664;BME280;13522;50.018;20.014;2023-08-01T16:22:32;97580.80;;;17.79;100.00
25664;BME280;13522;50.018;20.014;2023-08-01T16:25:45;97581.63;;;17.79;100.00
25664;BME280;13522;50.018;20.014;2023-08-01T16:28:57;97580.00;;;17.78;100.00
25664;BME280;13522;50.018;20.014;2023-08-01T16:32:10;97588.25;;;17.77;100.00
25664;BME280;13522;50.018;20.014;2023-08-01T16:35:23;97594.45;;;17.77;100.00
25664;BME280;13522;50.018;20.014;2023-08-01T16:38:35;97583.70;;;17.77;100.00